Time;durP1;ratioP1;P1;durP2;ratioP2;P2;SDS_P1;SDS_P2;PMS_P1;PMS_P2;Temp;Humidity;BMP_temperature;BMP_pressure;BME280_temperature;BME280_humidity;BME280_pressure;Samples;Min_cycle;Max_cycle;Signal;HPM_P1;HPM_P2
2023/01/23 00:00:00;;;;;;;;;;;2.30;99.90;;;;;;5063648;28;19936;-82
2023/01/23 00:02:26;;;;;;;;;;;2.30;99.90;;;;;;5073027;28;20229;-81
2023/01/23 00:04:52;;;;;;;;;;;2.20;99.90;;;;;;5073554;28;20031;-82
2023/01/23 00:07:18;;;;;;;;;;;2.20;99.90;;;;;;5072820;28;19947;-82
2023/01/23 00:09:43;;;;;;;;;;;2.20;99.90;;;;;;5069221;28;19944;-74
2023/01/23 00:12:09;;;;;;;;;;;2.30;99.90;;;;;;5074518;28;19959;-82
2023/01/23 00:14:35;;;;;;;;;;;2.20;99.90;;;;;;5070986;28;19910;-83
2023/01/23 00:17:00;;;;;;;;;;;2.20;99.90;;;;;;5074516;28;19934;-83
2023/01/23 00:19:26;;;;;;;;;;;2.20;99.90;;;;;;5072774;28;19913;-72
2023/01/23 00:21:51;;;;;;;;;;;2.20;99.90;;;;;;5072885;28;19919;-81
2023/01/23 00:24:17;;;;;;;;;;;2.10;99.90;;;;;;5067962;28;20322;-82
2023/01/23 00:26:42;;;;;;;;;;;2.10;99.90;;;;;;5068312;28;19915;-81
2023/01/23 00:29:08;;;;;;;;;;;2.10;99.90;;;;;;5054315;28;19919;-80
2023/01/23 00:31:35;;;;;;;;;;;2.10;99.90;;;;;;5071084;28;20187;-74
2023/01/23 00:34:02;;;;;;;;;;;2.10;99.90;;;;;;5062388;28;19916;-74
2023/01/23 00:36:29;;;;;;;;;;;2.10;99.90;;;;;;5072991;28;19974;-82
2023/01/23 00:38:55;;;;;;;;;;;2.10;99.90;;;;;;5060193;28;19909;-82
2023/01/23 00:41:21;;;;;;;;;;;2.10;99.90;;;;;;5067118;28;20042;-80
2023/01/23 00:43:47;;;;;;;;;;;2.10;99.90;;;;;;5074199;28;20290;-82
2023/01/23 00:46:13;;;;;;;;;;;2.10;99.90;;;;;;5073589;28;19912;-82
2023/01/23 00:48:38;;;;;;;;;;;2.10;99.90;;;;;;5069332;28;19912;-82
2023/01/23 00:51:04;;;;;;;;;;;2.10;99.90;;;;;;5065099;28;19916;-83
2023/01/23 00:53:30;;;;;;;;;;;2.10;99.90;;;;;;5067254;28;19938;-74
2023/01/23 00:55:55;;;;;;;;;;;2.00;99.90;;;;;;5070113;28;20319;-83
2023/01/23 00:58:21;;;;;;;;;;;2.10;99.90;;;;;;5059753;28;19908;-73
2023/01/23 01:00:46;;;;;;;;;;;2.00;99.90;;;;;;5059528;28;19927;-83
2023/01/23 01:03:12;;;;;;;;;;;2.00;99.90;;;;;;5070480;28;19955;-83
2023/01/23 01:05:37;;;;;;;;;;;2.00;99.90;;;;;;5072060;28;19910;-78
2023/01/23 01:08:03;;;;;;;;;;;2.00;99.90;;;;;;5063858;28;19916;-82
2023/01/23 01:10:30;;;;;;;;;;;2.00;99.90;;;;;;5069227;28;20302;-76
2023/01/23 01:12:56;;;;;;;;;;;2.00;99.90;;;;;;5068106;28;19909;-81
2023/01/23 01:15:22;;;;;;;;;;;2.10;99.90;;;;;;5065447;28;19916;-82
2023/01/23 01:17:47;;;;;;;;;;;2.10;99.90;;;;;;5071225;28;19905;-82
2023/01/23 01:20:13;;;;;;;;;;;2.10;99.90;;;;;;5073247;28;19919;-82
2023/01/23 01:22:39;;;;;;;;;;;2.10;99.90;;;;;;5060442;28;19916;-81
2023/01/23 01:25:04;;;;;;;;;;;2.10;99.90;;;;;;5066199;28;19912;-75
2023/01/23 01:27:30;;;;;;;;;;;2.20;99.90;;;;;;5070561;28;20001;-78
2023/01/23 01:29:55;;;;;;;;;;;2.10;99.90;;;;;;5059088;28;19909;-83
2023/01/23 01:32:21;;;;;;;;;;;2.10;99.90;;;;;;5073495;28;19909;-81
2023/01/23 01:34:47;;;;;;;;;;;2.10;99.90;;;;;;5057046;28;19908;-84
2023/01/23 01:37:12;;;;;;;;;;;2.10;99.90;;;;;;5070207;28;20013;-79
2023/01/23 01:39:38;;;;;;;;;;;2.00;99.90;;;;;;5067899;28;20295;-82
2023/01/23 01:42:03;;;;;;;;;;;2.10;99.90;;;;;;5073610;28;19920;-83
2023/01/23 01:44:49;;;;;;;;;;;2.10;99.90;;;;;;5072576;28;19908;-73
2023/01/23 01:47:14;;;;;;;;;;;2.10;99.90;;;;;;5064390;28;19935;-78
2023/01/23 01:49:40;;;;;;;;;;;2.10;99.90;;;;;;5070024;28;20299;-82
2023/01/23 01:52:07;;;;;;;;;;;2.10;99.90;;;;;;5069546;28;19916;-82
2023/01/23 01:54:35;;;;;;;;;;;2.10;99.90;;;;;;5070613;28;19999;-78
2023/01/23 01:57:03;;;;;;;;;;;2.10;99.90;;;;;;5068835;28;20346;-82
2023/01/23 01:59:31;;;;;;;;;;;2.10;99.90;;;;;;5063369;28;19919;-72
2023/01/23 02:02:04;;;;;;;;;;;2.10;99.90;;;;;;5077198;28;19977;-78
2023/01/23 02:04:35;;;;;;;;;;;2.10;99.90;;;;;;5080715;28;19916;-73
2023/01/23 02:07:04;;;;;;;;;;;2.10;99.90;;;;;;5074905;28;20274;-77
2023/01/23 02:09:32;;;;;;;;;;;2.10;99.90;;;;;;5063663;28;19948;-81
2023/01/23 02:11:59;;;;;;;;;;;2.10;99.90;;;;;;5073097;28;19974;-80
2023/01/23 02:14:24;;;;;;;;;;;2.10;99.90;;;;;;5072075;28;20462;-79
2023/01/23 02:16:51;;;;;;;;;;;2.10;99.90;;;;;;5072299;28;19960;-80
2023/01/23 02:19:26;;;;;;;;;;;2.10;99.90;;;;;;5068230;28;19912;-78
2023/01/23 02:21:58;;;;;;;;;;;2.10;99.90;;;;;;5071454;28;19912;-84
2023/01/23 02:24:49;;;;;;;;;;;2.10;99.90;;;;;;5076726;28;19912;-82
2023/01/23 02:27:15;;;;;;;;;;;2.10;99.90;;;;;;5068428;28;20002;-81
2023/01/23 02:29:42;;;;;;;;;;;2.10;99.90;;;;;;5074340;28;19987;-82
2023/01/23 02:32:08;;;;;;;;;;;2.10;99.90;;;;;;5078066;28;19908;-78
2023/01/23 02:34:34;;;;;;;;;;;2.10;99.90;;;;;;5059237;28;19939;-82
2023/01/23 02:36:59;;;;;;;;;;;2.20;99.90;;;;;;5059771;28;20288;-77
2023/01/23 02:39:26;;;;;;;;;;;2.20;99.90;;;;;;5068888;28;19913;-73
2023/01/23 02:41:53;;;;;;;;;;;2.20;99.90;;;;;;5076947;28;19912;-75
2023/01/23 02:44:26;;;;;;;;;;;2.20;99.90;;;;;;5074899;28;19909;-78
2023/01/23 02:46:56;;;;;;;;;;;2.20;99.90;;;;;;5074784;28;19954;-73
2023/01/23 02:49:22;;;;;;;;;;;2.20;99.90;;;;;;5073461;28;19908;-83
2023/01/23 02:51:48;;;;;;;;;;;2.20;99.90;;;;;;5069367;28;19911;-73
2023/01/23 02:54:14;;;;;;;;;;;2.20;99.90;;;;;;5072230;28;19913;-72
2023/01/23 02:56:41;;;;;;;;;;;2.20;99.90;;;;;;5069433;28;20290;-75
2023/01/23 03:02:08;;;;;;;;;;;2.10;99.90;;;;;;5007319;28;20005;-81
2023/01/23 03:04:34;;;;;;;;;;;2.10;99.90;;;;;;5061318;28;20003;-81
2023/01/23 03:06:59;;;;;;;;;;;2.10;99.90;;;;;;5076969;28;20013;-72
2023/01/23 03:09:25;;;;;;;;;;;2.10;99.90;;;;;;5066563;28;20318;-72
2023/01/23 03:11:51;;;;;;;;;;;2.10;99.90;;;;;;5071161;28;19995;-77
2023/01/23 03:14:18;;;;;;;;;;;2.10;99.90;;;;;;5066352;28;19919;-74
2023/01/23 03:16:49;;;;;;;;;;;2.10;99.90;;;;;;5073748;28;20317;-72
2023/01/23 03:19:15;;;;;;;;;;;2.10;99.90;;;;;;5074986;28;20026;-72
2023/01/23 03:21:40;;;;;;;;;;;2.10;99.90;;;;;;5069529;28;19958;-81
2023/01/23 03:24:07;;;;;;;;;;;2.10;99.90;;;;;;5075479;28;19934;-72
2023/01/23 03:26:32;;;;;;;;;;;2.10;99.90;;;;;;5072652;28;19915;-77
2023/01/23 03:31:42;;;;;;;;;;;2.20;99.90;;;;;;5073099;28;20214;-80
2023/01/23 03:34:08;;;;;;;;;;;2.20;99.90;;;;;;5075881;28;19909;-81
2023/01/23 03:36:36;;;;;;;;;;;2.20;99.90;;;;;;5060870;28;20394;-74
2023/01/23 03:41:47;;;;;;;;;;;2.30;99.90;;;;;;5062630;28;20001;-82
2023/01/23 03:44:17;;;;;;;;;;;2.20;99.90;;;;;;5064768;28;19971;-79
2023/01/23 03:46:43;;;;;;;;;;;2.20;99.90;;;;;;5067569;28;19904;-80
2023/01/23 03:49:09;;;;;;;;;;;2.30;99.90;;;;;;5073784;28;20295;-82
2023/01/23 03:51:34;;;;;;;;;;;2.20;99.90;;;;;;5067222;28;20272;-77
2023/01/23 03:54:00;;;;;;;;;;;2.20;99.90;;;;;;5067346;28;20011;-75
2023/01/23 03:56:25;;;;;;;;;;;2.20;99.90;;;;;;5069435;28;19912;-73
2023/01/23 03:58:51;;;;;;;;;;;2.30;99.90;;;;;;5064970;28;19908;-73
2023/01/23 04:01:17;;;;;;;;;;;2.20;99.90;;;;;;5067796;28;19931;-76
2023/01/23 04:03:42;;;;;;;;;;;2.30;99.90;;;;;;5065562;28;19995;-73
2023/01/23 04:06:08;;;;;;;;;;;2.30;99.90;;;;;;5067231;28;20007;-74
2023/01/23 04:08:33;;;;;;;;;;;2.20;99.90;;;;;;5072000;28;19913;-76
2023/01/23 04:11:00;;;;;;;;;;;2.20;99.90;;;;;;5048258;28;19921;-73
2023/01/23 04:13:25;;;;;;;;;;;2.20;99.90;;;;;;5064113;28;19912;-79
2023/01/23 04:15:51;;;;;;;;;;;2.20;99.90;;;;;;5063935;28;19932;-81
2023/01/23 04:18:16;;;;;;;;;;;2.30;99.90;;;;;;5073064;28;19935;-74
2023/01/23 04:20:42;;;;;;;;;;;2.20;99.90;;;;;;5061016;28;19959;-80
2023/01/23 04:23:07;;;;;;;;;;;2.20;99.90;;;;;;5071087;28;19919;-72
2023/01/23 04:25:33;;;;;;;;;;;2.20;99.90;;;;;;5073626;28;19912;-79
2023/01/23 04:27:58;;;;;;;;;;;2.20;99.90;;;;;;5061574;28;20311;-79
2023/01/23 04:30:24;;;;;;;;;;;2.20;99.90;;;;;;5072163;28;19917;-80
2023/01/23 04:32:49;;;;;;;;;;;2.20;99.90;;;;;;5073073;28;20018;-80
2023/01/23 04:35:15;;;;;;;;;;;2.20;99.90;;;;;;5066554;28;20211;-76
2023/01/23 04:37:40;;;;;;;;;;;2.20;99.90;;;;;;5074052;28;20295;-74
2023/01/23 04:40:06;;;;;;;;;;;2.20;99.90;;;;;;5062511;28;19908;-81
2023/01/23 04:42:32;;;;;;;;;;;2.20;99.90;;;;;;5072496;28;20007;-81
2023/01/23 04:44:57;;;;;;;;;;;2.20;99.90;;;;;;5063909;28;19909;-81
2023/01/23 04:47:23;;;;;;;;;;;2.20;99.90;;;;;;5060089;28;19912;-80
2023/01/23 04:49:48;;;;;;;;;;;2.30;99.90;;;;;;5070173;28;19917;-80
2023/01/23 04:52:14;;;;;;;;;;;2.30;99.90;;;;;;5066259;28;19918;-80
2023/01/23 04:54:39;;;;;;;;;;;2.20;99.90;;;;;;5066427;28;19909;-80
2023/01/23 04:57:05;;;;;;;;;;;2.30;99.90;;;;;;5073083;28;19946;-79
2023/01/23 04:59:30;;;;;;;;;;;2.30;99.90;;;;;;5072546;28;19912;-81
2023/01/23 05:01:56;;;;;;;;;;;2.30;99.90;;;;;;5071418;28;19923;-80
2023/01/23 05:04:23;;;;;;;;;;;2.30;99.90;;;;;;5071580;28;19921;-78
2023/01/23 05:06:48;;;;;;;;;;;2.30;99.90;;;;;;5068992;28;20242;-81
2023/01/23 05:09:14;;;;;;;;;;;2.30;99.90;;;;;;5072703;28;19951;-80
2023/01/23 05:11:39;;;;;;;;;;;2.30;99.90;;;;;;5063778;28;20230;-79
2023/01/23 05:14:05;;;;;;;;;;;2.30;99.90;;;;;;5063081;28;19917;-75
2023/01/23 05:16:31;;;;;;;;;;;2.20;99.90;;;;;;5072056;28;19958;-79
2023/01/23 05:18:56;;;;;;;;;;;2.20;99.90;;;;;;5064449;28;19908;-76
2023/01/23 05:21:22;;;;;;;;;;;2.20;99.90;;;;;;5070532;28;19912;-72
2023/01/23 05:23:47;;;;;;;;;;;2.20;99.90;;;;;;5068357;28;19909;-79
2023/01/23 05:26:13;;;;;;;;;;;2.20;99.90;;;;;;5074477;28;20010;-79
2023/01/23 05:28:38;;;;;;;;;;;2.20;99.90;;;;;;5065088;28;20295;-75
2023/01/23 05:31:04;;;;;;;;;;;2.20;99.90;;;;;;5074432;28;20628;-83
2023/01/23 05:33:29;;;;;;;;;;;2.20;99.90;;;;;;5060209;28;20003;-82
2023/01/23 05:35:58;;;;;;;;;;;2.10;99.90;;;;;;5069690;28;19999;-79
2023/01/23 05:38:24;;;;;;;;;;;2.20;99.90;;;;;;5073973;28;20280;-77
2023/01/23 05:40:49;;;;;;;;;;;2.10;99.90;;;;;;5071933;28;19915;-81
2023/01/23 05:43:15;;;;;;;;;;;2.10;99.90;;;;;;5074786;28;20002;-80
2023/01/23 05:45:41;;;;;;;;;;;2.10;99.90;;;;;;5072480;28;19966;-80
2023/01/23 05:48:06;;;;;;;;;;;2.20;99.90;;;;;;5055904;28;19909;-81
2023/01/23 05:50:32;;;;;;;;;;;2.20;99.90;;;;;;5073953;28;19908;-80
2023/01/23 05:52:57;;;;;;;;;;;2.20;99.90;;;;;;5048916;28;19944;-78
2023/01/23 05:55:23;;;;;;;;;;;2.20;99.90;;;;;;5074176;28;19947;-81
2023/01/23 05:57:49;;;;;;;;;;;2.20;99.90;;;;;;5072442;28;20009;-82
2023/01/23 06:00:15;;;;;;;;;;;2.20;99.90;;;;;;5073958;28;19924;-80
2023/01/23 06:02:41;;;;;;;;;;;2.20;99.90;;;;;;5070119;28;20329;-82
2023/01/23 06:05:07;;;;;;;;;;;2.20;99.90;;;;;;5071144;28;19993;-81
2023/01/23 06:07:32;;;;;;;;;;;2.20;99.90;;;;;;5072743;28;20215;-82
2023/01/23 06:09:58;;;;;;;;;;;2.20;99.90;;;;;;5069832;28;19909;-82
2023/01/23 06:12:23;;;;;;;;;;;2.20;99.90;;;;;;5077749;28;19974;-82
2023/01/23 06:14:49;;;;;;;;;;;2.20;99.90;;;;;;5067530;28;19962;-81
2023/01/23 06:17:14;;;;;;;;;;;2.20;99.90;;;;;;5074346;28;19912;-81
2023/01/23 06:19:40;;;;;;;;;;;2.20;99.90;;;;;;5078357;28;19912;-81
2023/01/23 06:22:05;;;;;;;;;;;2.20;99.90;;;;;;5071586;28;20318;-80
2023/01/23 06:24:31;;;;;;;;;;;2.20;99.90;;;;;;5069580;28;19908;-80
2023/01/23 06:26:56;;;;;;;;;;;2.20;99.90;;;;;;5070329;28;20248;-81
2023/01/23 06:29:22;;;;;;;;;;;2.20;99.90;;;;;;5068860;28;19912;-81
2023/01/23 06:31:48;;;;;;;;;;;2.20;99.90;;;;;;5062804;28;19909;-81
2023/01/23 06:34:14;;;;;;;;;;;2.10;99.90;;;;;;5048772;28;20007;-81
2023/01/23 06:36:39;;;;;;;;;;;2.20;99.90;;;;;;5074168;28;20219;-78
2023/01/23 06:39:05;;;;;;;;;;;2.20;99.90;;;;;;5069276;28;19946;-80
2023/01/23 06:41:31;;;;;;;;;;;2.20;99.90;;;;;;5069453;28;19919;-80
2023/01/23 06:43:56;;;;;;;;;;;2.10;99.90;;;;;;5064250;28;19917;-81
2023/01/23 06:46:22;;;;;;;;;;;2.20;99.90;;;;;;5072486;28;19916;-82
2023/01/23 06:48:48;;;;;;;;;;;2.20;99.90;;;;;;5069083;28;19963;-76
2023/01/23 06:51:13;;;;;;;;;;;2.10;99.90;;;;;;5063940;28;20231;-77
2023/01/23 06:53:39;;;;;;;;;;;2.10;99.90;;;;;;5059294;28;19920;-78
2023/01/23 06:56:06;;;;;;;;;;;2.10;99.90;;;;;;5061346;28;20298;-79
2023/01/23 06:58:37;;;;;;;;;;;2.10;99.90;;;;;;5064839;28;19966;-80
2023/01/23 07:01:07;;;;;;;;;;;2.10;99.90;;;;;;5065953;28;19917;-72
2023/01/23 07:03:33;;;;;;;;;;;2.10;99.90;;;;;;5068044;28;20011;-78
2023/01/23 07:06:01;;;;;;;;;;;2.10;99.90;;;;;;5073855;28;20011;-80
2023/01/23 07:08:27;;;;;;;;;;;2.20;99.90;;;;;;5067460;28;19909;-81
2023/01/23 07:10:53;;;;;;;;;;;2.20;99.90;;;;;;5071297;28;20078;-81
2023/01/23 07:13:18;;;;;;;;;;;2.20;99.90;;;;;;5072275;28;20010;-81
2023/01/23 07:15:45;;;;;;;;;;;2.20;99.90;;;;;;5067376;28;19912;-82
2023/01/23 07:18:10;;;;;;;;;;;2.20;99.90;;;;;;5069689;28;19916;-83
2023/01/23 07:20:37;;;;;;;;;;;2.30;99.90;;;;;;5069766;28;19920;-78
2023/01/23 07:23:02;;;;;;;;;;;2.30;99.90;;;;;;5062486;28;19966;-81
2023/01/23 07:25:29;;;;;;;;;;;2.30;99.90;;;;;;5070061;28;19916;-79
2023/01/23 07:27:54;;;;;;;;;;;2.30;99.90;;;;;;5065338;28;20310;-79
2023/01/23 07:30:20;;;;;;;;;;;2.30;99.90;;;;;;5070738;28;19915;-80
2023/01/23 07:32:46;;;;;;;;;;;2.30;99.90;;;;;;5062998;28;20253;-80
2023/01/23 07:35:11;;;;;;;;;;;2.30;99.90;;;;;;5069591;28;19916;-80
2023/01/23 07:37:37;;;;;;;;;;;2.30;99.90;;;;;;5069444;28;19947;-80
2023/01/23 07:40:02;;;;;;;;;;;2.30;99.90;;;;;;5064978;28;20245;-81
2023/01/23 07:42:28;;;;;;;;;;;2.30;99.90;;;;;;5057726;28;20312;-80
2023/01/23 07:44:54;;;;;;;;;;;2.30;99.90;;;;;;5069134;28;20511;-78
2023/01/23 07:47:19;;;;;;;;;;;2.30;99.90;;;;;;5064781;28;19936;-79
2023/01/23 07:49:44;;;;;;;;;;;2.30;99.90;;;;;;5066048;28;19916;-80
2023/01/23 07:52:10;;;;;;;;;;;2.30;99.90;;;;;;5068674;28;20361;-80
2023/01/23 07:54:35;;;;;;;;;;;2.30;99.90;;;;;;5067716;28;19908;-78
2023/01/23 07:57:01;;;;;;;;;;;2.30;99.90;;;;;;5062891;28;19913;-81
2023/01/23 07:59:27;;;;;;;;;;;2.30;99.90;;;;;;5063230;28;19908;-80
2023/01/23 08:01:52;;;;;;;;;;;2.40;99.90;;;;;;5058683;28;20010;-80
2023/01/23 08:04:19;;;;;;;;;;;2.40;99.90;;;;;;5066789;28;19912;-79
2023/01/23 08:06:44;;;;;;;;;;;2.30;99.90;;;;;;5058220;28;19990;-80
2023/01/23 08:09:10;;;;;;;;;;;2.40;99.90;;;;;;5065057;28;20004;-81
2023/01/23 08:11:36;;;;;;;;;;;2.30;99.90;;;;;;5062684;28;19941;-80
2023/01/23 08:14:01;;;;;;;;;;;2.30;99.90;;;;;;5070236;28;19919;-80
2023/01/23 08:16:27;;;;;;;;;;;2.40;99.90;;;;;;5065379;28;19908;-80
2023/01/23 08:18:53;;;;;;;;;;;2.40;99.90;;;;;;5065348;28;19917;-80
2023/01/23 08:21:18;;;;;;;;;;;2.40;99.90;;;;;;5065096;28;19916;-80
2023/01/23 08:23:45;;;;;;;;;;;2.30;99.90;;;;;;5068920;28;19955;-79
2023/01/23 08:26:12;;;;;;;;;;;2.40;99.90;;;;;;5062629;28;20310;-81
2023/01/23 08:28:38;;;;;;;;;;;2.40;99.90;;;;;;5066278;28;19908;-81
2023/01/23 08:31:04;;;;;;;;;;;2.40;99.90;;;;;;5068554;28;19972;-81
2023/01/23 08:33:31;;;;;;;;;;;2.50;99.90;;;;;;5068572;28;20339;-81
2023/01/23 08:35:57;;;;;;;;;;;2.50;99.90;;;;;;5063480;28;19931;-80
2023/01/23 08:38:23;;;;;;;;;;;2.50;99.90;;;;;;5068018;28;20565;-81
2023/01/23 08:40:50;;;;;;;;;;;2.50;99.90;;;;;;5058094;28;19924;-81
2023/01/23 08:43:16;;;;;;;;;;;2.50;99.90;;;;;;5065738;28;20375;-81
2023/01/23 08:45:48;;;;;;;;;;;2.50;99.90;;;;;;5066698;28;19923;-81
2023/01/23 08:48:13;;;;;;;;;;;2.60;99.90;;;;;;5068194;28;19980;-81
2023/01/23 08:50:39;;;;;;;;;;;2.60;99.90;;;;;;5061001;28;20215;-80
2023/01/23 08:53:05;;;;;;;;;;;2.70;99.90;;;;;;5063077;28;19919;-81
2023/01/23 08:55:31;;;;;;;;;;;2.60;99.90;;;;;;5066659;28;19915;-80
2023/01/23 08:57:58;;;;;;;;;;;2.70;99.90;;;;;;5072341;28;19908;-81
2023/01/23 09:00:24;;;;;;;;;;;2.70;99.90;;;;;;5063187;28;19916;-81
2023/01/23 09:02:50;;;;;;;;;;;2.70;99.90;;;;;;5065098;28;19942;-80
2023/01/23 09:05:16;;;;;;;;;;;2.80;99.90;;;;;;5068418;28;19922;-81
2023/01/23 09:07:41;;;;;;;;;;;2.80;99.90;;;;;;5067614;28;19908;-80
2023/01/23 09:10:10;;;;;;;;;;;2.80;99.90;;;;;;5069920;28;19956;-82
2023/01/23 09:12:35;;;;;;;;;;;2.90;99.90;;;;;;5061598;28;19919;-80
2023/01/23 09:15:01;;;;;;;;;;;2.80;99.90;;;;;;5066385;28;19908;-79
2023/01/23 09:17:26;;;;;;;;;;;2.90;99.90;;;;;;5064288;28;19909;-81
2023/01/23 09:19:52;;;;;;;;;;;2.90;99.90;;;;;;5069234;28;19916;-81
2023/01/23 09:22:18;;;;;;;;;;;3.00;99.90;;;;;;5069162;28;19920;-81
2023/01/23 09:24:44;;;;;;;;;;;3.00;99.90;;;;;;5061325;28;19912;-79
2023/01/23 09:27:09;;;;;;;;;;;3.00;99.90;;;;;;5065034;28;19912;-80
2023/01/23 09:29:35;;;;;;;;;;;3.00;99.90;;;;;;5066841;28;19990;-80
2023/01/23 09:32:01;;;;;;;;;;;3.00;99.90;;;;;;5067656;28;19908;-81
2023/01/23 09:34:28;;;;;;;;;;;3.00;99.90;;;;;;5062774;28;19908;-80
2023/01/23 09:36:53;;;;;;;;;;;3.00;99.90;;;;;;5070930;28;20086;-81
2023/01/23 09:39:19;;;;;;;;;;;3.00;99.90;;;;;;5064499;28;19994;-80
2023/01/23 09:41:46;;;;;;;;;;;3.10;99.90;;;;;;5060121;28;20326;-79
2023/01/23 09:44:14;;;;;;;;;;;3.10;99.90;;;;;;5060093;28;19931;-80
2023/01/23 09:46:50;;;;;;;;;;;3.00;99.90;;;;;;5068664;28;19909;-80
2023/01/23 09:49:15;;;;;;;;;;;3.20;99.90;;;;;;5065203;28;19963;-72
2023/01/23 09:52:00;;;;;;;;;;;3.10;99.90;;;;;;5070059;28;19917;-80
2023/01/23 09:54:28;;;;;;;;;;;3.20;99.90;;;;;;5065588;28;19908;-80
2023/01/23 09:56:54;;;;;;;;;;;3.20;99.90;;;;;;5069374;28;19979;-80
2023/01/23 09:59:32;;;;;;;;;;;3.30;99.90;;;;;;5067641;28;19909;-81
2023/01/23 10:01:58;;;;;;;;;;;3.40;99.90;;;;;;5065021;28;19925;-80
2023/01/23 10:04:23;;;;;;;;;;;3.40;99.90;;;;;;5068488;28;19913;-79
2023/01/23 10:06:58;;;;;;;;;;;3.40;99.90;;;;;;5070526;28;20302;-76
2023/01/23 10:09:38;;;;;;;;;;;3.40;99.90;;;;;;5070216;28;19993;-81
2023/01/23 10:12:10;;;;;;;;;;;3.50;99.90;;;;;;5066154;28;19919;-80
2023/01/23 10:14:45;;;;;;;;;;;3.60;99.90;;;;;;5064201;28;19909;-71
2023/01/23 10:17:13;;;;;;;;;;;3.70;99.90;;;;;;5056344;28;19916;-81
2023/01/23 10:19:57;;;;;;;;;;;3.70;99.90;;;;;;5067543;28;20258;-80
2023/01/23 10:22:23;;;;;;;;;;;3.70;99.90;;;;;;5064658;28;20641;-79
2023/01/23 10:24:50;;;;;;;;;;;3.70;99.90;;;;;;5069126;28;19999;-82
2023/01/23 10:27:31;;;;;;;;;;;3.80;99.90;;;;;;5059520;28;19915;-72
2023/01/23 10:29:59;;;;;;;;;;;3.80;99.90;;;;;;5066248;28;19909;-80
2023/01/23 10:32:26;;;;;;;;;;;3.90;99.90;;;;;;5073723;28;19912;-80
2023/01/23 10:34:56;;;;;;;;;;;3.90;99.90;;;;;;5068758;28;20307;-80
2023/01/23 10:37:40;;;;;;;;;;;4.10;99.90;;;;;;5069762;28;19912;-81
2023/01/23 10:40:13;;;;;;;;;;;4.10;99.90;;;;;;5071093;28;19925;-72
2023/01/23 10:42:38;;;;;;;;;;;4.10;99.90;;;;;;5068920;28;19999;-72
2023/01/23 10:45:05;;;;;;;;;;;4.20;99.90;;;;;;5073372;28;20272;-81
2023/01/23 10:47:30;;;;;;;;;;;4.30;99.90;;;;;;5067500;28;19967;-81
2023/01/23 10:49:56;;;;;;;;;;;4.30;99.90;;;;;;5068636;28;19912;-81
2023/01/23 10:52:31;;;;;;;;;;;4.40;99.90;;;;;;5074809;28;19912;-82
2023/01/23 10:54:57;;;;;;;;;;;4.50;99.90;;;;;;5071854;28;20286;-72
2023/01/23 10:57:24;;;;;;;;;;;4.50;99.90;;;;;;5069187;28;19919;-71
2023/01/23 10:59:53;;;;;;;;;;;4.60;99.90;;;;;;5066061;28;19915;-71
2023/01/23 11:02:28;;;;;;;;;;;4.70;99.90;;;;;;5072147;28;19985;-71
2023/01/23 11:04:54;;;;;;;;;;;4.70;99.90;;;;;;5065477;28;19920;-83
2023/01/23 11:07:24;;;;;;;;;;;4.90;99.90;;;;;;5064072;28;19908;-72
2023/01/23 11:09:51;;;;;;;;;;;5.00;99.90;;;;;;5064933;28;19908;-71
2023/01/23 11:12:21;;;;;;;;;;;5.00;99.90;;;;;;5071937;28;19912;-72
2023/01/23 11:14:47;;;;;;;;;;;5.00;99.90;;;;;;5067291;28;19908;-82
2023/01/23 11:17:14;;;;;;;;;;;5.00;99.90;;;;;;5065069;28;20606;-71
2023/01/23 11:19:40;;;;;;;;;;;5.00;99.90;;;;;;5069486;28;19908;-71
2023/01/23 11:22:22;;;;;;;;;;;5.00;99.90;;;;;;5067225;28;20291;-71
2023/01/23 11:24:47;;;;;;;;;;;5.00;99.90;;;;;;5069916;28;20412;-71
2023/01/23 11:27:18;;;;;;;;;;;5.00;99.90;;;;;;5059085;28;20031;-71
2023/01/23 11:29:49;;;;;;;;;;;4.90;99.90;;;;;;5057860;28;20975;-72
2023/01/23 11:32:15;;;;;;;;;;;4.90;99.90;;;;;;5064210;28;20003;-82
2023/01/23 11:34:52;;;;;;;;;;;5.00;99.90;;;;;;5064945;28;20369;-83
2023/01/23 11:37:37;;;;;;;;;;;5.00;99.90;;;;;;5070052;28;19916;-84
2023/01/23 11:40:10;;;;;;;;;;;5.00;99.90;;;;;;5067778;28;20017;-82
2023/01/23 11:42:38;;;;;;;;;;;5.10;99.90;;;;;;5071495;28;19957;-83
2023/01/23 11:45:11;;;;;;;;;;;5.00;99.90;;;;;;5067385;28;19923;-84
2023/01/23 11:47:42;;;;;;;;;;;5.00;99.90;;;;;;5067574;28;19908;-83
2023/01/23 11:50:08;;;;;;;;;;;4.90;99.90;;;;;;5065168;28;19908;-83
2023/01/23 11:52:35;;;;;;;;;;;4.90;99.90;;;;;;5060778;28;19916;-83
2023/01/23 11:55:15;;;;;;;;;;;5.00;99.90;;;;;;5062268;28;19915;-82
2023/01/23 11:57:56;;;;;;;;;;;5.00;99.90;;;;;;5066395;28;19908;-82
2023/01/23 12:00:27;;;;;;;;;;;5.10;99.90;;;;;;5059966;28;19916;-78
2023/01/23 12:03:02;;;;;;;;;;;5.30;99.90;;;;;;5067687;28;19913;-72
2023/01/23 12:05:36;;;;;;;;;;;5.30;99.90;;;;;;5068944;28;19908;-72
2023/01/23 12:08:02;;;;;;;;;;;5.40;99.90;;;;;;5072555;28;19908;-84
2023/01/23 12:10:34;;;;;;;;;;;5.30;99.90;;;;;;5070375;28;19914;-73
2023/01/23 12:13:05;;;;;;;;;;;5.50;99.90;;;;;;5067455;28;19916;-79
2023/01/23 12:15:43;;;;;;;;;;;5.60;99.90;;;;;;5068962;28;19908;-72
2023/01/23 12:18:38;;;;;;;;;;;5.60;99.90;;;;;;5069584;28;19958;-72
2023/01/23 12:21:25;;;;;;;;;;;5.80;99.90;;;;;;5002047;28;19918;-82
2023/01/23 12:24:11;;;;;;;;;;;5.80;99.90;;;;;;5062566;28;19912;-83
2023/01/23 12:26:39;;;;;;;;;;;5.90;99.90;;;;;;5067291;28;19912;-74
2023/01/23 12:29:24;;;;;;;;;;;5.90;99.90;;;;;;5061245;28;19916;-72
2023/01/23 12:31:49;;;;;;;;;;;5.90;99.90;;;;;;5057311;28;19992;-72
2023/01/23 12:34:33;;;;;;;;;;;5.80;99.90;;;;;;5063378;28;20016;-71
2023/01/23 12:37:02;;;;;;;;;;;5.70;99.90;;;;;;5066937;28;20311;-72
2023/01/23 12:39:46;;;;;;;;;;;5.60;99.90;;;;;;5063174;28;19931;-82
2023/01/23 12:42:14;;;;;;;;;;;5.60;99.90;;;;;;5068921;28;19912;-83
2023/01/23 12:44:42;;;;;;;;;;;5.70;99.90;;;;;;5063874;28;19958;-83
2023/01/23 12:47:21;;;;;;;;;;;5.70;99.90;;;;;;5064281;28;19913;-72
2023/01/23 12:49:53;;;;;;;;;;;5.70;99.90;;;;;;5067634;28;20322;-72
2023/01/23 12:52:24;;;;;;;;;;;5.60;99.90;;;;;;5067498;28;20306;-71
2023/01/23 12:54:53;;;;;;;;;;;5.60;99.90;;;;;;5072588;28;19940;-71
2023/01/23 12:57:38;;;;;;;;;;;5.50;99.90;;;;;;5071109;28;19959;-71
2023/01/23 13:00:15;;;;;;;;;;;5.50;99.90;;;;;;5063326;28;19916;-83
2023/01/23 13:02:59;;;;;;;;;;;5.50;99.90;;;;;;5067053;28;19922;-71
2023/01/23 13:05:30;;;;;;;;;;;5.60;99.90;;;;;;5074043;28;19908;-83
2023/01/23 13:07:55;;;;;;;;;;;5.70;99.90;;;;;;5071186;28;19919;-73
2023/01/23 13:13:25;;;;;;;;;;;5.90;99.90;;;;;;5067405;28;19919;-83
2023/01/23 13:16:03;;;;;;;;;;;6.10;99.90;;;;;;5069410;28;19911;-72
2023/01/23 13:18:28;;;;;;;;;;;6.20;99.90;;;;;;5070527;28;19974;-72
2023/01/23 13:23:40;;;;;;;;;;;6.20;99.90;;;;;;5067729;28;20449;-83
2023/01/23 13:26:14;;;;;;;;;;;6.30;99.90;;;;;;5075917;28;20011;-71
2023/01/23 13:28:53;;;;;;;;;;;6.20;99.90;;;;;;5070405;28;19916;-83
2023/01/23 13:31:23;;;;;;;;;;;6.10;99.90;;;;;;5061765;28;20291;-71
2023/01/23 13:33:49;;;;;;;;;;;6.00;99.90;;;;;;5073114;28;19919;-71
2023/01/23 13:36:26;;;;;;;;;;;5.90;99.90;;;;;;5064428;28;19916;-71
2023/01/23 13:38:59;;;;;;;;;;;5.90;99.90;;;;;;5072951;28;20042;-82
2023/01/23 13:41:27;;;;;;;;;;;5.80;99.90;;;;;;5070458;28;20318;-72
2023/01/23 13:43:53;;;;;;;;;;;5.70;99.90;;;;;;5072075;28;19912;-71
2023/01/23 13:46:29;;;;;;;;;;;5.60;99.90;;;;;;5066464;28;19908;-71
2023/01/23 13:51:41;;;;;;;;;;;5.50;99.90;;;;;;5066088;28;19911;-71
2023/01/23 13:56:57;;;;;;;;;;;5.40;99.90;;;;;;5067159;28;19916;-71
2023/01/23 13:59:22;;;;;;;;;;;5.30;99.90;;;;;;5076572;28;20333;-82
2023/01/23 14:07:45;;;;;;;;;;;5.30;99.90;;;;;;5068579;28;19966;-72
2023/01/23 14:10:21;;;;;;;;;;;5.40;99.90;;;;;;5075140;28;20238;-71
2023/01/23 14:12:47;;;;;;;;;;;5.30;99.90;;;;;;5064624;28;19912;-71
2023/01/23 14:18:04;;;;;;;;;;;5.10;99.90;;;;;;5073369;28;19919;-71
2023/01/23 14:20:36;;;;;;;;;;;5.20;99.90;;;;;;5066543;28;20235;-71
2023/01/23 14:23:02;;;;;;;;;;;5.10;99.90;;;;;;5068734;28;19912;-71
2023/01/23 14:25:28;;;;;;;;;;;5.10;99.90;;;;;;5071608;28;19927;-72
2023/01/23 14:28:03;;;;;;;;;;;5.10;99.90;;;;;;5074283;28;19934;-71
2023/01/23 14:30:30;;;;;;;;;;;5.10;99.90;;;;;;5074924;28;19912;-71
2023/01/23 14:32:57;;;;;;;;;;;5.00;99.90;;;;;;5069499;28;19912;-71
2023/01/23 14:35:30;;;;;;;;;;;5.00;99.90;;;;;;5063216;28;20562;-83
2023/01/23 14:37:57;;;;;;;;;;;5.00;99.90;;;;;;5055830;28;19917;-71
2023/01/23 14:40:23;;;;;;;;;;;5.00;99.90;;;;;;5075261;28;19919;-84
2023/01/23 14:42:55;;;;;;;;;;;5.00;99.90;;;;;;5061439;28;19917;-83
2023/01/23 14:45:20;;;;;;;;;;;4.90;99.90;;;;;;5076620;28;20268;-70
2023/01/23 14:47:46;;;;;;;;;;;4.90;99.90;;;;;;5074905;28;20007;-81
2023/01/23 14:50:17;;;;;;;;;;;4.90;99.90;;;;;;5069285;28;20269;-83
2023/01/23 14:52:43;;;;;;;;;;;4.90;99.90;;;;;;5071864;28;20004;-71
2023/01/23 14:55:21;;;;;;;;;;;4.90;99.90;;;;;;5068223;28;19955;-70
2023/01/23 14:57:47;;;;;;;;;;;4.90;99.90;;;;;;5074254;28;19923;-82
2023/01/23 15:00:15;;;;;;;;;;;4.80;99.90;;;;;;5073598;28;20275;-71
2023/01/23 15:02:41;;;;;;;;;;;4.80;99.90;;;;;;5069562;28;19918;-71